createdAt,value
2019-05-10T00:00:34.772Z,18.80
2019-05-10T00:01:34.789Z,18.80
2019-05-10T00:02:34.747Z,18.78
2019-05-10T00:03:34.740Z,18.80
2019-05-10T00:04:34.725Z,18.78
2019-05-10T00:05:34.715Z,18.78
2019-05-10T00:06:34.757Z,18.78
2019-05-10T00:07:34.710Z,18.78
2019-05-10T00:08:34.687Z,18.78
2019-05-10T00:09:34.685Z,18.78
2019-05-10T00:10:34.667Z,18.78
2019-05-10T00:11:34.667Z,18.80
2019-05-10T00:12:34.674Z,18.77
2019-05-10T00:13:34.631Z,18.78
2019-05-10T00:14:34.621Z,18.78
2019-05-10T00:15:34.610Z,18.77
2019-05-10T00:16:34.601Z,18.78
2019-05-10T00:17:34.627Z,18.78
2019-05-10T00:18:34.573Z,18.78
2019-05-10T00:19:34.581Z,18.77
2019-05-10T00:20:34.555Z,18.77
2019-05-10T00:21:34.541Z,18.78
2019-05-10T00:22:34.535Z,18.78
2019-05-10T00:23:34.556Z,18.78
2019-05-10T00:24:34.510Z,18.80
2019-05-10T00:25:34.498Z,18.78
2019-05-10T00:26:34.494Z,18.78
2019-05-10T00:27:34.479Z,18.80
2019-05-10T00:28:34.469Z,18.78
2019-05-10T00:29:34.503Z,18.78
2019-05-10T00:30:34.446Z,18.78
2019-05-10T00:31:34.436Z,18.78
2019-05-10T00:32:34.435Z,18.78
2019-05-10T00:33:34.417Z,18.80
2019-05-10T00:34:34.430Z,18.78
2019-05-10T00:35:34.395Z,18.78
2019-05-10T00:36:34.383Z,18.78
2019-05-10T00:37:34.370Z,18.78
2019-05-10T00:38:34.358Z,18.78
2019-05-10T00:39:34.380Z,18.77
2019-05-10T00:40:34.343Z,18.77
2019-05-10T00:41:34.330Z,18.78
2019-05-10T00:42:34.323Z,18.78
2019-05-10T00:43:34.308Z,18.78
2019-05-10T00:44:34.304Z,18.78
2019-05-10T00:45:34.319Z,18.77
2019-05-10T00:46:34.274Z,18.78
2019-05-10T00:47:34.273Z,18.78
2019-05-10T00:48:34.257Z,18.77
2019-05-10T00:49:34.249Z,18.77
2019-05-10T00:50:34.233Z,18.78
2019-05-10T00:51:34.272Z,18.78
2019-05-10T00:52:34.235Z,18.77
2019-05-10T00:53:34.199Z,18.78
2019-05-10T00:54:34.188Z,18.78
2019-05-10T00:55:34.178Z,18.78
2019-05-10T00:56:34.176Z,18.77
2019-05-10T00:57:34.189Z,18.78
2019-05-10T00:58:34.235Z,18.78
2019-05-10T00:59:34.150Z,18.77
2019-05-10T01:00:34.134Z,18.80
2019-05-10T01:01:34.119Z,18.78
2019-05-10T01:02:34.156Z,18.78
2019-05-10T01:03:34.101Z,18.78
2019-05-10T01:04:34.083Z,18.80
2019-05-10T01:05:34.089Z,18.78
2019-05-10T01:06:34.063Z,18.77
2019-05-10T01:07:34.053Z,18.78
2019-05-10T01:08:34.075Z,18.78
2019-05-10T01:09:34.031Z,18.78
2019-05-10T01:10:34.027Z,18.77
2019-05-10T01:11:34.017Z,18.78
2019-05-10T01:12:34.004Z,18.78
2019-05-10T01:13:33.992Z,18.77
2019-05-10T01:14:34.015Z,18.78
2019-05-10T01:15:33.986Z,18.78
2019-05-10T01:16:33.957Z,18.78
2019-05-10T01:17:33.949Z,18.78
2019-05-10T01:18:33.935Z,18.78
2019-05-10T01:19:33.974Z,18.77
2019-05-10T01:20:33.920Z,18.78
2019-05-10T01:21:33.910Z,18.77
2019-05-10T01:22:33.892Z,18.77
2019-05-10T01:23:33.886Z,18.78
2019-05-10T01:24:33.880Z,18.77
2019-05-10T01:25:35.814Z,18.78
2019-05-10T01:26:33.849Z,18.77
2019-05-10T01:27:33.842Z,18.77
2019-05-10T01:28:33.833Z,18.78
2019-05-10T01:29:33.821Z,18.75
2019-05-10T01:30:33.807Z,18.77
2019-05-10T01:31:33.842Z,18.77
2019-05-10T01:32:33.794Z,18.77
2019-05-10T01:33:33.780Z,18.78
2019-05-10T01:34:33.814Z,18.77
2019-05-10T01:35:33.761Z,18.78
2019-05-10T01:36:33.750Z,18.77
2019-05-10T01:37:33.747Z,18.77
2019-05-10T01:38:33.729Z,18.77
2019-05-10T01:39:33.715Z,18.77
2019-05-10T01:40:33.736Z,18.77
2019-05-10T01:41:33.698Z,18.75
2019-05-10T01:42:33.686Z,18.77
2019-05-10T01:43:33.673Z,18.75
2019-05-10T01:44:33.665Z,18.77
2019-05-10T01:45:33.683Z,18.75
2019-05-10T01:46:33.645Z,18.75
2019-05-10T01:47:33.665Z,18.77
2019-05-10T01:48:33.641Z,18.77
2019-05-10T01:49:33.696Z,18.77
2019-05-10T01:50:33.601Z,18.77
2019-05-10T01:51:33.623Z,18.77
2019-05-10T01:52:33.574Z,18.75
2019-05-10T01:53:33.567Z,18.77
2019-05-10T01:54:33.562Z,18.78
2019-05-10T01:55:33.549Z,18.75
2019-05-10T01:56:33.539Z,18.75
2019-05-10T01:57:33.554Z,18.75
2019-05-10T01:58:33.520Z,18.77
2019-05-10T01:59:33.502Z,18.77
2019-05-10T02:00:33.500Z,18.77
2019-05-10T02:01:33.493Z,18.77
2019-05-10T02:02:33.515Z,18.77
2019-05-10T02:03:33.460Z,18.77
2019-05-10T02:04:33.457Z,18.77
2019-05-10T02:05:33.439Z,18.75
2019-05-10T02:06:33.431Z,18.75
2019-05-10T02:07:33.423Z,18.77
2019-05-10T02:08:33.439Z,18.77
2019-05-10T02:09:33.685Z,18.77
2019-05-10T02:10:33.388Z,18.77
2019-05-10T02:11:33.388Z,18.77
2019-05-10T02:12:33.374Z,18.77
2019-05-10T02:13:33.385Z,18.77
2019-05-10T02:14:33.342Z,18.75
2019-05-10T02:15:33.331Z,18.77
2019-05-10T02:16:33.328Z,18.77
2019-05-10T02:17:33.311Z,18.77
2019-05-10T02:18:33.304Z,18.77
2019-05-10T02:19:33.334Z,18.75
2019-05-10T02:20:33.280Z,18.75
2019-05-10T02:21:33.274Z,18.75
2019-05-10T02:22:33.261Z,18.75
2019-05-10T02:23:33.247Z,18.77
2019-05-10T02:24:33.245Z,18.78
2019-05-10T02:25:33.261Z,18.75
2019-05-10T02:26:33.220Z,18.77
2019-05-10T02:27:33.210Z,18.75
2019-05-10T02:28:33.196Z,18.77
2019-05-10T02:29:33.189Z,18.75
2019-05-10T02:30:33.177Z,18.77
2019-05-10T02:31:33.222Z,18.77
2019-05-10T02:32:33.156Z,18.77
2019-05-10T02:33:33.148Z,18.77
2019-05-10T02:34:33.144Z,18.77
2019-05-10T02:35:33.118Z,18.75
2019-05-10T02:36:33.112Z,18.77
2019-05-10T02:37:33.128Z,18.75
2019-05-10T02:38:33.090Z,18.77
2019-05-10T02:39:33.115Z,18.75
2019-05-10T02:40:33.070Z,18.75
2019-05-10T02:41:33.056Z,18.77
2019-05-10T02:42:33.046Z,18.77
2019-05-10T02:43:33.041Z,18.77
2019-05-10T02:44:33.050Z,18.75
2019-05-10T02:45:33.066Z,18.78
2019-05-10T02:46:33.005Z,18.77
2019-05-10T02:47:32.992Z,18.75
2019-05-10T02:48:32.985Z,18.75
2019-05-10T02:49:33.004Z,18.77
2019-05-10T02:50:32.967Z,18.75
2019-05-10T02:51:32.969Z,18.75
2019-05-10T02:52:33.055Z,18.75
2019-05-10T02:53:32.933Z,18.75
2019-05-10T02:54:32.932Z,18.75
2019-05-10T02:55:32.947Z,18.74
2019-05-10T02:56:32.900Z,18.75
2019-05-10T02:57:32.906Z,18.75
2019-05-10T02:58:32.882Z,18.75
2019-05-10T02:59:32.869Z,18.74
2019-05-10T03:00:32.892Z,18.75
2019-05-10T03:01:32.850Z,18.74
2019-05-10T03:02:32.837Z,18.75
2019-05-10T03:03:32.821Z,18.75
2019-05-10T03:04:32.817Z,18.75
2019-05-10T03:05:32.805Z,18.75
2019-05-10T03:06:32.817Z,18.75
2019-05-10T03:07:32.799Z,18.75
2019-05-10T03:08:32.790Z,18.74
2019-05-10T03:09:32.755Z,18.75
2019-05-10T03:10:32.746Z,18.75
2019-05-10T03:11:32.736Z,18.75
2019-05-10T03:12:32.732Z,18.75
2019-05-10T03:13:32.716Z,18.75
2019-05-10T03:14:32.732Z,18.74
2019-05-10T03:15:32.717Z,18.75
2019-05-10T03:16:32.686Z,18.74
2019-05-10T03:17:32.670Z,18.74
2019-05-10T03:18:32.661Z,18.74
2019-05-10T03:19:32.658Z,18.74
2019-05-10T03:20:32.683Z,18.74
2019-05-10T03:21:32.636Z,18.74
2019-05-10T03:22:32.617Z,18.73
2019-05-10T03:23:32.613Z,18.74
2019-05-10T03:24:32.600Z,18.75
2019-05-10T03:25:32.586Z,18.75
2019-05-10T03:26:49.575Z,18.75
2019-05-10T03:27:33.568Z,18.74
2019-05-10T03:28:32.556Z,18.74
2019-05-10T03:29:32.544Z,18.74
2019-05-10T03:30:32.563Z,18.74
2019-05-10T03:31:32.529Z,18.74
2019-05-10T03:32:32.542Z,18.74
2019-05-10T03:33:32.508Z,18.74
2019-05-10T03:34:32.498Z,18.74
2019-05-10T03:35:32.485Z,18.75
2019-05-10T03:36:32.490Z,18.75
2019-05-10T03:37:32.466Z,18.75
2019-05-10T03:38:32.473Z,18.75
2019-05-10T03:39:32.448Z,18.75
2019-05-10T03:40:32.454Z,18.74
2019-05-10T03:41:32.427Z,18.75
2019-05-10T03:42:32.409Z,18.74
2019-05-10T03:43:32.425Z,18.75
2019-05-10T03:44:32.398Z,18.75
2019-05-10T03:45:32.392Z,18.75
2019-05-10T03:46:32.387Z,18.75
2019-05-10T03:47:32.362Z,18.77
2019-05-10T03:48:32.344Z,18.75
2019-05-10T03:49:32.353Z,18.75
2019-05-10T03:50:32.326Z,18.75
2019-05-10T03:51:32.311Z,18.75
2019-05-10T03:52:32.303Z,18.75
2019-05-10T03:53:32.323Z,18.75
2019-05-10T03:54:32.297Z,18.77
2019-05-10T03:55:32.266Z,18.75
2019-05-10T03:56:32.262Z,18.75
2019-05-10T03:57:32.252Z,18.74
2019-05-10T03:58:32.240Z,18.75
2019-05-10T03:59:32.232Z,18.75
2019-05-10T04:00:32.243Z,18.75
2019-05-10T04:01:32.212Z,18.75
2019-05-10T04:02:32.200Z,18.75
2019-05-10T04:03:32.192Z,18.75
2019-05-10T04:04:32.300Z,18.75
2019-05-10T04:05:32.183Z,18.75
2019-05-10T04:06:32.151Z,18.74
2019-05-10T04:07:32.144Z,18.74
2019-05-10T04:08:32.129Z,18.74
2019-05-10T04:09:32.122Z,18.75
2019-05-10T04:10:32.111Z,18.74
2019-05-10T04:11:32.136Z,18.75
2019-05-10T04:12:32.100Z,18.74
2019-05-10T04:13:32.078Z,18.73
2019-05-10T04:14:32.076Z,18.74
2019-05-10T04:15:32.052Z,18.75
2019-05-10T04:16:32.044Z,18.74
2019-05-10T04:17:32.057Z,18.74
2019-05-10T04:18:32.029Z,18.75
2019-05-10T04:19:32.016Z,18.74
2019-05-10T04:20:32.004Z,18.74
2019-05-10T04:21:31.995Z,18.75
2019-05-10T04:22:32.011Z,18.75
2019-05-10T04:23:31.975Z,18.74
2019-05-10T04:24:36.056Z,18.75
2019-05-10T04:25:31.949Z,18.74
2019-05-10T04:26:31.962Z,18.75
2019-05-10T04:27:33.069Z,18.75
2019-05-10T04:28:31.924Z,18.74
2019-05-10T04:29:31.912Z,18.74
2019-05-10T04:30:32.057Z,18.74
2019-05-10T04:31:31.886Z,18.75
2019-05-10T04:32:31.887Z,18.74
2019-05-10T04:33:31.891Z,18.74
2019-05-10T04:34:31.860Z,18.74
2019-05-10T04:35:31.847Z,18.74
2019-05-10T04:36:31.853Z,18.74
2019-05-10T04:37:31.827Z,18.75
2019-05-10T04:38:31.814Z,18.74
2019-05-10T04:39:31.834Z,18.74
2019-05-10T04:40:31.802Z,18.75
2019-05-10T04:41:31.789Z,18.74
2019-05-10T04:42:31.774Z,18.74
2019-05-10T04:43:31.765Z,18.74
2019-05-10T04:44:31.751Z,18.74
2019-05-10T04:45:31.758Z,18.74
2019-05-10T04:46:31.735Z,18.75
2019-05-10T04:47:31.715Z,18.74
2019-05-10T04:48:31.707Z,18.74
2019-05-10T04:49:31.707Z,18.74
2019-05-10T04:50:31.693Z,18.73
2019-05-10T04:51:31.702Z,18.74
2019-05-10T04:52:31.667Z,18.74
2019-05-10T04:53:31.654Z,18.74
2019-05-10T04:54:31.648Z,18.74
2019-05-10T04:55:31.655Z,18.73
2019-05-10T04:56:31.622Z,18.74
2019-05-10T04:57:47.962Z,18.74
2019-05-10T04:58:32.600Z,18.74
2019-05-10T04:59:31.613Z,18.74
2019-05-10T05:00:31.615Z,18.73
2019-05-10T05:01:31.575Z,18.74
2019-05-10T05:02:31.561Z,18.71
2019-05-10T05:03:31.547Z,18.73
2019-05-10T05:04:31.542Z,18.74
2019-05-10T05:05:31.528Z,18.73
2019-05-10T05:06:31.542Z,18.73
2019-05-10T05:07:31.509Z,18.74
2019-05-10T05:08:31.516Z,18.73
2019-05-10T05:09:31.492Z,18.73
2019-05-10T05:10:31.471Z,18.75
2019-05-10T05:11:31.463Z,18.73
2019-05-10T05:12:31.453Z,18.74
2019-05-10T05:13:31.471Z,18.73
2019-05-10T05:14:31.474Z,18.74
2019-05-10T05:15:31.426Z,18.74
2019-05-10T05:16:31.415Z,18.74
2019-05-10T05:17:31.411Z,18.71
2019-05-10T05:18:31.395Z,18.74
2019-05-10T05:19:31.398Z,18.74
2019-05-10T05:20:31.395Z,18.74
2019-05-10T05:21:31.357Z,18.74
2019-05-10T05:22:31.367Z,18.74
2019-05-10T05:23:31.337Z,18.73
2019-05-10T05:24:31.328Z,18.74
2019-05-10T05:25:35.233Z,18.74
2019-05-10T05:26:32.329Z,18.74
2019-05-10T05:27:31.297Z,18.74
2019-05-10T05:28:31.282Z,18.74
2019-05-10T05:29:31.316Z,18.74
2019-05-10T05:30:31.285Z,18.74
2019-05-10T05:31:31.257Z,18.73
2019-05-10T05:32:31.258Z,18.74
2019-05-10T05:33:31.228Z,18.75
2019-05-10T05:34:31.220Z,18.74
2019-05-10T05:35:31.210Z,18.74
2019-05-10T05:36:31.238Z,18.73
2019-05-10T05:37:31.194Z,18.74
2019-05-10T05:38:31.184Z,18.74
2019-05-10T05:39:31.176Z,18.73
2019-05-10T05:40:31.158Z,18.74
2019-05-10T05:41:31.909Z,18.74
2019-05-10T05:42:31.172Z,18.73
2019-05-10T05:43:31.129Z,18.73
2019-05-10T05:44:31.110Z,18.74
2019-05-10T05:45:34.009Z,18.73
2019-05-10T05:46:31.100Z,18.73
2019-05-10T05:47:31.086Z,18.73
2019-05-10T05:48:39.984Z,18.73
2019-05-10T05:49:32.062Z,18.73
2019-05-10T05:50:31.056Z,18.73
2019-05-10T05:51:31.063Z,18.74
2019-05-10T05:52:31.026Z,18.73
2019-05-10T05:53:35.764Z,18.74
2019-05-10T05:54:32.007Z,18.74
2019-05-10T05:55:32.290Z,18.73
2019-05-10T05:56:31.008Z,18.73
2019-05-10T05:57:30.978Z,18.74
2019-05-10T05:58:30.967Z,18.74
2019-05-10T05:59:30.956Z,18.73
2019-05-10T06:00:30.947Z,18.74
2019-05-10T06:01:30.972Z,18.74
2019-05-10T06:02:30.929Z,18.73
2019-05-10T06:03:30.914Z,18.74
2019-05-10T06:04:30.899Z,18.71
2019-05-10T06:05:36.768Z,18.71
2019-05-10T06:06:31.903Z,18.73
2019-05-10T06:07:37.152Z,18.73
2019-05-10T06:08:31.899Z,18.73
2019-05-10T06:09:32.027Z,18.73
2019-05-10T06:10:31.839Z,18.73
2019-05-10T06:11:35.981Z,18.73
2019-05-10T06:12:31.818Z,18.73
2019-05-10T06:13:32.459Z,18.73
2019-05-10T06:14:30.815Z,18.73
2019-05-10T06:15:31.586Z,18.73
2019-05-10T06:16:30.773Z,18.73
2019-05-10T06:17:31.780Z,18.73
2019-05-10T06:18:30.760Z,18.73
2019-05-10T06:19:30.891Z,18.75
2019-05-10T06:20:30.758Z,18.71
2019-05-10T06:21:30.716Z,18.74
2019-05-10T06:22:30.711Z,18.73
2019-05-10T06:23:34.987Z,18.73
2019-05-10T06:24:34.196Z,18.73
2019-05-10T06:25:39.635Z,18.71
2019-05-10T06:26:31.677Z,18.71
2019-05-10T06:27:30.658Z,18.73
2019-05-10T06:28:56.830Z,18.73
2019-05-10T06:29:31.639Z,18.73
2019-05-10T06:30:30.632Z,18.71
2019-05-10T06:31:30.636Z,18.71
2019-05-10T06:32:30.625Z,18.73
2019-05-10T06:33:30.595Z,18.73
2019-05-10T06:34:31.829Z,18.71
2019-05-10T06:35:31.574Z,18.73
2019-05-10T06:36:30.598Z,18.73
2019-05-10T06:37:31.480Z,18.73
2019-05-10T06:38:30.564Z,18.71
2019-05-10T06:39:30.530Z,18.71
2019-05-10T06:40:34.760Z,18.74
2019-05-10T06:41:32.680Z,18.73
2019-05-10T06:42:34.690Z,18.74
2019-05-10T06:43:31.482Z,18.73
2019-05-10T06:44:31.236Z,18.73
2019-05-10T06:45:30.466Z,18.73
2019-05-10T06:46:31.189Z,18.73
2019-05-10T06:47:30.462Z,18.73
2019-05-10T06:48:33.578Z,18.73
2019-05-10T06:49:30.422Z,18.73
2019-05-10T06:50:31.929Z,18.73
2019-05-10T06:51:30.429Z,18.73
2019-05-10T06:52:30.429Z,18.73
2019-05-10T06:53:30.378Z,18.73
2019-05-10T06:54:30.374Z,18.73
2019-05-10T06:55:30.359Z,18.74
2019-05-10T06:56:30.344Z,18.74
2019-05-10T06:57:30.348Z,18.74
2019-05-10T06:58:35.825Z,18.74
2019-05-10T06:59:31.315Z,18.71
2019-05-10T07:00:30.308Z,18.73
2019-05-10T07:01:30.312Z,18.73
2019-05-10T07:02:32.550Z,18.71
2019-05-10T07:03:30.280Z,18.73
2019-05-10T07:04:35.060Z,18.73
2019-05-10T07:05:31.256Z,18.73
2019-05-10T07:06:30.241Z,18.73
2019-05-10T07:07:43.057Z,18.73
2019-05-10T07:08:43.356Z,18.74
2019-05-10T07:09:59.990Z,18.74
2019-05-10T07:10:33.736Z,18.71
2019-05-10T07:11:30.191Z,18.73
2019-05-10T07:12:30.426Z,18.73
2019-05-10T07:13:30.162Z,18.73
2019-05-10T07:14:30.170Z,18.73
2019-05-10T07:15:30.167Z,18.73
2019-05-10T07:16:30.135Z,18.74
2019-05-10T07:17:30.124Z,18.73
2019-05-10T07:18:30.110Z,18.75
2019-05-10T07:19:34.855Z,18.73
2019-05-10T07:20:31.112Z,18.74
2019-05-10T07:21:30.098Z,18.71
2019-05-10T07:22:30.079Z,18.73
2019-05-10T07:23:30.382Z,18.74
2019-05-10T07:24:30.069Z,18.73
2019-05-10T07:25:30.068Z,18.74
2019-05-10T07:26:30.026Z,18.74
2019-05-10T07:27:30.023Z,18.74
2019-05-10T07:28:30.017Z,18.75
2019-05-10T07:29:30.612Z,18.74
2019-05-10T07:30:31.002Z,18.74
2019-05-10T07:31:29.994Z,18.74
2019-05-10T07:32:29.969Z,18.75
2019-05-10T07:33:32.214Z,18.74
2019-05-10T07:34:30.940Z,18.75
2019-05-10T07:35:31.030Z,18.75
2019-05-10T07:36:31.198Z,18.75
2019-05-10T07:37:29.921Z,18.75
2019-05-10T07:38:31.163Z,18.77
2019-05-10T07:39:29.892Z,18.77
2019-05-10T07:40:29.896Z,18.78
2019-05-10T07:41:29.943Z,18.78
2019-05-10T07:42:29.862Z,18.77
2019-05-10T07:43:29.860Z,18.77
2019-05-10T07:44:29.831Z,18.77
2019-05-10T07:45:29.829Z,18.75
2019-05-10T07:46:29.809Z,18.75
2019-05-10T07:47:30.901Z,18.75
2019-05-10T07:48:29.794Z,18.75
2019-05-10T07:49:32.350Z,18.75
2019-05-10T07:50:29.777Z,18.75
2019-05-10T07:51:30.331Z,18.74
2019-05-10T07:52:29.750Z,18.74
2019-05-10T07:53:29.761Z,18.75
2019-05-10T07:54:29.726Z,18.75
2019-05-10T07:55:30.167Z,18.75
2019-05-10T07:56:29.702Z,18.74
2019-05-10T07:57:29.692Z,18.75
2019-05-10T07:58:29.704Z,18.73
2019-05-10T07:59:32.498Z,18.75
2019-05-10T08:00:30.664Z,18.75
2019-05-10T08:01:32.686Z,18.75
2019-05-10T08:02:30.644Z,18.75
2019-05-10T08:03:29.908Z,18.77
2019-05-10T08:04:33.498Z,18.77
2019-05-10T08:05:29.767Z,18.75
2019-05-10T08:06:33.870Z,18.77
2019-05-10T08:07:30.591Z,18.77
2019-05-10T08:08:29.746Z,18.77
2019-05-10T08:09:31.691Z,18.77
2019-05-10T08:10:29.551Z,18.77
2019-05-10T08:11:29.548Z,18.77
2019-05-10T08:12:29.529Z,18.77
2019-05-10T08:13:29.529Z,18.78
2019-05-10T08:14:29.512Z,18.78
2019-05-10T08:15:34.434Z,18.80
2019-05-10T08:16:30.496Z,18.80
2019-05-10T08:17:29.488Z,18.77
2019-05-10T08:18:29.470Z,18.78
2019-05-10T08:19:32.677Z,18.80
2019-05-10T08:20:45.733Z,18.78
2019-05-10T08:21:32.229Z,18.80
2019-05-10T08:22:32.867Z,18.78
2019-05-10T08:23:30.449Z,18.80
2019-05-10T08:24:29.410Z,18.78
2019-05-10T08:25:35.417Z,18.78
2019-05-10T08:26:32.797Z,18.78
2019-05-10T08:27:29.381Z,18.78
2019-05-10T08:28:35.065Z,18.78
2019-05-10T08:29:32.863Z,18.78
2019-05-10T08:30:29.458Z,18.78
2019-05-10T08:31:33.777Z,18.80
2019-05-10T08:32:34.625Z,18.78
2019-05-10T08:33:29.312Z,18.80
2019-05-10T08:34:35.462Z,18.80
2019-05-10T08:35:30.293Z,18.80
2019-05-10T08:36:29.294Z,18.80
2019-05-10T08:37:36.011Z,18.80
2019-05-10T08:38:31.896Z,18.78
2019-05-10T08:39:35.285Z,18.80
2019-05-10T08:40:35.119Z,18.80
2019-05-10T08:41:32.412Z,18.80
2019-05-10T08:42:40.944Z,18.81
2019-05-10T08:43:38.697Z,18.80
2019-05-10T08:44:32.559Z,18.78
2019-05-10T08:45:29.199Z,18.80
2019-05-10T08:46:38.317Z,18.80
2019-05-10T08:47:32.226Z,18.80
2019-05-10T08:48:29.150Z,18.80
2019-05-10T08:49:39.369Z,18.80
2019-05-10T08:50:48.411Z,18.80
2019-05-10T08:51:32.317Z,18.78
2019-05-10T08:52:31.724Z,18.78
2019-05-10T08:53:29.116Z,18.78
2019-05-10T08:54:29.088Z,18.78
2019-05-10T08:55:29.085Z,18.77
2019-05-10T08:56:29.087Z,18.78
2019-05-10T08:57:29.058Z,18.78
2019-05-10T08:58:36.899Z,18.77
2019-05-10T08:59:30.889Z,18.77
2019-05-10T09:00:45.680Z,18.75
2019-05-10T09:01:31.426Z,18.78
2019-05-10T09:02:30.284Z,18.75
2019-05-10T09:03:28.988Z,18.77
2019-05-10T09:04:33.539Z,18.75
2019-05-10T09:05:31.901Z,18.75
2019-05-10T09:06:28.960Z,18.75
2019-05-10T09:07:29.353Z,18.74
2019-05-10T09:08:31.932Z,18.75
2019-05-10T09:09:33.700Z,18.75
2019-05-10T09:10:32.267Z,18.75
2019-05-10T09:11:28.924Z,18.77
2019-05-10T09:12:29.606Z,18.78
2019-05-10T09:13:33.919Z,18.80
2019-05-10T09:14:32.561Z,18.80
2019-05-10T09:15:28.860Z,18.81
2019-05-10T09:16:34.305Z,18.81
2019-05-10T09:17:29.831Z,18.81
2019-05-10T09:18:28.824Z,18.81
2019-05-10T09:19:37.412Z,18.83
2019-05-10T09:20:31.772Z,18.83
2019-05-10T09:21:28.793Z,18.84
2019-05-10T09:22:33.953Z,18.84
2019-05-10T09:23:29.773Z,18.88
2019-05-10T09:24:28.769Z,18.86
2019-05-10T09:25:30.986Z,18.86
2019-05-10T09:26:28.765Z,18.89
2019-05-10T09:27:29.432Z,18.88
2019-05-10T09:28:28.718Z,18.89
2019-05-10T09:29:33.034Z,18.89
2019-05-10T09:30:32.432Z,18.89
2019-05-10T09:31:29.707Z,18.90
2019-05-10T09:32:30.472Z,18.89
2019-05-10T09:33:28.701Z,18.90
2019-05-10T09:34:28.653Z,18.92
2019-05-10T09:35:28.649Z,18.92
2019-05-10T09:36:31.229Z,18.92
2019-05-10T09:37:31.876Z,18.93
2019-05-10T09:38:33.828Z,18.92
2019-05-10T09:39:31.991Z,18.93
2019-05-10T09:40:28.594Z,18.92
2019-05-10T09:41:36.155Z,18.93
2019-05-10T09:42:34.857Z,18.93
2019-05-10T09:43:31.825Z,18.93
2019-05-10T09:44:28.549Z,18.93
2019-05-10T09:45:28.541Z,18.93
2019-05-10T09:46:28.531Z,18.95
2019-05-10T09:47:28.514Z,18.95
2019-05-10T09:48:28.506Z,18.95
2019-05-10T09:49:28.523Z,18.96
2019-05-10T09:50:30.326Z,18.96
2019-05-10T09:51:30.985Z,18.96
2019-05-10T09:52:28.466Z,18.96
2019-05-10T09:53:30.419Z,18.99
2019-05-10T09:54:33.227Z,18.98
2019-05-10T09:55:29.446Z,18.96
2019-05-10T09:56:33.104Z,18.99
2019-05-10T09:57:32.145Z,18.99
2019-05-10T09:58:28.717Z,18.99
2019-05-10T09:59:28.391Z,18.99
2019-05-10T10:00:30.258Z,18.98
2019-05-10T10:01:28.367Z,19.00
2019-05-10T10:02:33.698Z,18.99
2019-05-10T10:03:30.073Z,18.99
2019-05-10T10:04:29.327Z,19.00
2019-05-10T10:05:28.346Z,18.99
2019-05-10T10:06:29.845Z,19.00
2019-05-10T10:07:32.181Z,18.99
2019-05-10T10:08:29.337Z,19.00
2019-05-10T10:09:33.660Z,19.02
2019-05-10T10:10:32.313Z,19.02
2019-05-10T10:11:28.251Z,19.02
2019-05-10T10:12:29.007Z,19.00
2019-05-10T10:13:39.491Z,19.02
2019-05-10T10:14:37.743Z,19.02
2019-05-10T10:15:34.084Z,19.02
2019-05-10T10:16:29.206Z,19.04
2019-05-10T10:17:30.721Z,19.04
2019-05-10T10:18:28.453Z,19.02
2019-05-10T10:19:28.188Z,19.04
2019-05-10T10:20:30.022Z,19.02
2019-05-10T10:21:34.913Z,19.04
2019-05-10T10:22:29.141Z,19.07
2019-05-10T10:23:33.053Z,19.04
2019-05-10T10:24:29.167Z,19.04
2019-05-10T10:25:30.021Z,19.07
2019-05-10T10:26:29.102Z,19.08
2019-05-10T10:27:34.443Z,19.07
2019-05-10T10:28:29.070Z,19.07
2019-05-10T10:29:28.874Z,19.08
2019-05-10T10:30:31.413Z,19.09
2019-05-10T10:31:33.108Z,19.12
2019-05-10T10:32:33.149Z,19.14
2019-05-10T10:33:29.525Z,19.14
2019-05-10T10:34:32.536Z,19.15
2019-05-10T10:35:29.932Z,19.18
2019-05-10T10:36:27.990Z,19.19
2019-05-10T10:37:31.218Z,19.21
2019-05-10T10:38:31.083Z,19.24
2019-05-10T10:39:27.958Z,19.27
2019-05-10T10:40:28.148Z,19.29
2019-05-10T10:41:31.747Z,19.31
2019-05-10T10:42:27.927Z,19.31
2019-05-10T10:43:27.917Z,19.34
2019-05-10T10:44:27.902Z,19.37
2019-05-10T10:45:27.927Z,19.39
2019-05-10T10:46:28.210Z,19.41
2019-05-10T10:47:30.966Z,19.44
2019-05-10T10:48:28.569Z,19.45
2019-05-10T10:49:30.798Z,19.47
2019-05-10T10:50:27.836Z,19.49
2019-05-10T10:51:32.158Z,19.52
2019-05-10T10:52:28.846Z,19.52
2019-05-10T10:53:28.355Z,19.55
2019-05-10T10:54:35.738Z,19.56
2019-05-10T10:55:30.527Z,19.58
2019-05-10T10:56:28.780Z,19.59
2019-05-10T10:57:28.003Z,19.59
2019-05-10T10:58:27.779Z,19.63
2019-05-10T10:59:27.742Z,19.64
2019-05-10T11:00:27.732Z,19.64
2019-05-10T11:01:37.894Z,19.66
2019-05-10T11:02:33.221Z,19.67
2019-05-10T11:03:30.540Z,19.67
2019-05-10T11:04:27.702Z,19.67
2019-05-10T11:05:27.677Z,19.67
2019-05-10T11:06:27.656Z,19.69
2019-05-10T11:07:27.648Z,19.69
2019-05-10T11:08:27.636Z,19.69
2019-05-10T11:09:27.670Z,19.70
2019-05-10T11:10:27.619Z,19.70
2019-05-10T11:11:30.489Z,19.70
2019-05-10T11:12:30.662Z,19.70
2019-05-10T11:13:41.582Z,19.70
2019-05-10T11:14:32.048Z,19.71
2019-05-10T11:15:34.790Z,19.71
2019-05-10T11:16:28.550Z,19.71
2019-05-10T11:17:27.543Z,19.70
2019-05-10T11:18:27.530Z,19.71
2019-05-10T11:19:27.518Z,19.70
2019-05-10T11:20:27.529Z,19.71
2019-05-10T11:21:28.639Z,19.70
2019-05-10T11:22:27.649Z,19.73
2019-05-10T11:23:34.097Z,19.70
2019-05-10T11:24:30.707Z,19.70
2019-05-10T11:25:27.447Z,19.71
2019-05-10T11:26:34.938Z,19.73
2019-05-10T11:27:30.806Z,19.71
2019-05-10T11:28:30.084Z,19.73
2019-05-10T11:29:30.670Z,19.73
2019-05-10T11:30:27.413Z,19.73
2019-05-10T11:31:27.388Z,19.74
2019-05-10T11:32:27.372Z,19.73
2019-05-10T11:33:30.820Z,19.73
2019-05-10T11:34:31.515Z,19.73
2019-05-10T11:35:31.341Z,19.74
2019-05-10T11:36:28.333Z,19.74
2019-05-10T11:37:32.847Z,19.74
2019-05-10T11:38:28.305Z,19.74
2019-05-10T11:39:27.296Z,19.76
2019-05-10T11:40:32.156Z,19.74
2019-05-10T11:41:28.312Z,19.74
2019-05-10T11:42:27.266Z,19.76
2019-05-10T11:43:27.257Z,19.76
2019-05-10T11:44:27.242Z,19.76
2019-05-10T11:45:34.468Z,19.76
2019-05-10T11:46:30.894Z,19.76
2019-05-10T11:47:27.482Z,19.77
2019-05-10T11:48:29.039Z,19.76
2019-05-10T11:49:30.621Z,19.77
2019-05-10T11:50:31.701Z,19.77
2019-05-10T11:51:28.165Z,19.77
2019-05-10T11:52:29.049Z,19.76
2019-05-10T11:53:28.166Z,19.79
2019-05-10T11:54:27.131Z,19.77
2019-05-10T11:55:27.125Z,19.77
2019-05-10T11:56:27.883Z,19.79
2019-05-10T11:57:27.094Z,19.76
2019-05-10T11:58:27.122Z,19.77
2019-05-10T11:59:32.532Z,19.77
2019-05-10T12:00:31.930Z,19.79
2019-05-10T12:01:28.054Z,19.77
2019-05-10T12:02:37.340Z,19.77
2019-05-10T12:03:28.053Z,19.76
2019-05-10T12:04:36.357Z,19.77
2019-05-10T12:05:28.013Z,19.76
2019-05-10T12:06:27.000Z,19.77
2019-05-10T12:07:35.223Z,19.77
2019-05-10T12:08:27.993Z,19.77
2019-05-10T12:09:26.970Z,19.77
2019-05-10T12:10:26.996Z,19.77
2019-05-10T12:11:33.185Z,19.76
2019-05-10T12:12:45.075Z,19.76
2019-05-10T12:13:27.921Z,19.77
2019-05-10T12:14:26.908Z,19.76
2019-05-10T12:15:26.895Z,19.77
2019-05-10T12:16:26.912Z,19.76
2019-05-10T12:17:26.879Z,19.76
2019-05-10T12:18:27.249Z,19.77
2019-05-10T12:19:36.629Z,19.76
2019-05-10T12:20:41.686Z,19.77
2019-05-10T12:21:27.880Z,19.74
2019-05-10T12:22:32.204Z,19.77
2019-05-10T12:23:31.226Z,19.76
2019-05-10T12:24:46.262Z,19.76
2019-05-10T12:25:42.541Z,19.76
2019-05-10T12:27:41.800Z,19.77
2019-05-10T12:28:29.991Z,19.74
2019-05-10T12:29:27.744Z,19.77
2019-05-10T12:30:29.419Z,19.77
2019-05-10T12:31:27.731Z,19.76
2019-05-10T12:32:32.069Z,19.76
2019-05-10T12:33:27.927Z,19.76
2019-05-10T12:34:26.697Z,19.77
2019-05-10T12:35:35.790Z,19.76
2019-05-10T12:36:27.823Z,19.74
2019-05-10T12:37:26.654Z,19.76
2019-05-10T12:38:29.730Z,19.76
2019-05-10T12:39:26.676Z,19.76
2019-05-10T12:40:26.622Z,19.76
2019-05-10T12:41:26.610Z,19.76
2019-05-10T12:42:26.601Z,19.76
2019-05-10T12:43:26.589Z,19.76
2019-05-10T12:44:26.582Z,19.76
2019-05-10T12:45:26.601Z,19.76
2019-05-10T12:46:26.564Z,19.76
2019-05-10T12:47:26.555Z,19.76
2019-05-10T12:48:26.533Z,19.76
2019-05-10T12:49:26.525Z,19.74
2019-05-10T12:50:26.511Z,19.76
2019-05-10T12:51:26.529Z,19.76
2019-05-10T12:52:28.689Z,19.74
2019-05-10T12:53:26.480Z,19.76